createdAt,value
2018-02-27T00:00:15.476Z,5.60
2018-02-27T00:02:44.708Z,5.57
2018-02-27T00:05:13.932Z,6.07
2018-02-27T00:07:43.250Z,6.60
2018-02-27T00:10:12.723Z,5.40
2018-02-27T00:12:41.930Z,5.70
2018-02-27T00:15:12.041Z,5.63
2018-02-27T00:17:42.020Z,5.93
2018-02-27T00:20:11.236Z,5.63
2018-02-27T00:22:40.542Z,5.53
2018-02-27T00:25:09.758Z,6.17
2018-02-27T00:27:39.757Z,4.80
2018-02-27T00:30:08.975Z,6.23
2018-02-27T00:32:38.983Z,5.80
2018-02-27T00:35:09.097Z,6.20
2018-02-27T00:37:38.312Z,5.80
2018-02-27T00:40:08.279Z,6.47
2018-02-27T00:42:37.502Z,6.27
2018-02-27T00:45:06.736Z,5.50
2018-02-27T00:47:35.977Z,5.13
2018-02-27T00:50:05.261Z,5.53
2018-02-27T00:52:34.574Z,4.70
2018-02-27T00:55:03.930Z,6.07
2018-02-27T00:57:33.411Z,5.73
2018-02-27T01:00:03.641Z,5.60
2018-02-27T01:02:32.881Z,5.67
2018-02-27T01:05:02.217Z,5.80
2018-02-27T01:07:31.443Z,6.13
2018-02-27T01:10:01.575Z,5.20
2018-02-27T01:12:30.782Z,6.10
2018-02-27T01:15:00.014Z,5.77
2018-02-27T01:17:29.241Z,6.60
2018-02-27T01:19:58.536Z,5.93
2018-02-27T01:22:27.743Z,5.80
2018-02-27T01:24:57.766Z,6.33
2018-02-27T01:27:27.738Z,6.13
2018-02-27T01:29:57.163Z,5.97
2018-02-27T01:32:26.423Z,5.30
2018-02-27T01:34:55.764Z,6.10
2018-02-27T01:37:24.982Z,5.97
2018-02-27T01:39:54.965Z,6.53
2018-02-27T01:42:24.316Z,5.87
2018-02-27T01:44:53.510Z,6.17
2018-02-27T01:47:22.743Z,6.03
2018-02-27T01:49:51.958Z,6.20
2018-02-27T01:52:21.187Z,5.20
2018-02-27T01:54:50.485Z,6.07
2018-02-27T01:57:20.475Z,7.17
2018-02-27T01:59:49.716Z,6.20
2018-02-27T02:02:18.939Z,6.80
2018-02-27T02:04:48.210Z,5.83
2018-02-27T02:07:17.412Z,6.30
2018-02-27T02:09:46.842Z,7.10
2018-02-27T02:12:16.091Z,6.67
2018-02-27T02:14:46.112Z,6.40
2018-02-27T02:17:16.109Z,5.03
2018-02-27T02:19:45.446Z,5.97
2018-02-27T02:22:14.775Z,6.47
2018-02-27T02:24:44.015Z,5.97
2018-02-27T02:27:13.992Z,5.70
2018-02-27T02:29:43.264Z,6.60
2018-02-27T02:32:12.478Z,5.90
2018-02-27T02:34:41.753Z,6.90
2018-02-27T02:37:10.959Z,6.37
2018-02-27T02:39:40.303Z,6.33
2018-02-27T02:42:25.043Z,6.10
2018-02-27T02:44:54.368Z,6.37
2018-02-27T02:47:23.631Z,6.27
2018-02-27T02:49:52.879Z,5.70
2018-02-27T02:52:22.084Z,7.30
2018-02-27T02:54:52.063Z,5.80
2018-02-27T02:57:21.411Z,6.67
2018-02-27T02:59:50.626Z,6.97
2018-02-27T03:02:19.850Z,5.93
2018-02-27T03:04:49.134Z,7.20
2018-02-27T03:07:18.352Z,6.80
2018-02-27T03:09:47.573Z,7.17
2018-02-27T03:12:16.904Z,8.40
2018-02-27T03:14:46.117Z,5.53
2018-02-27T03:17:15.334Z,6.67
2018-02-27T03:19:44.590Z,6.40
2018-02-27T03:22:14.587Z,6.70
2018-02-27T03:24:44.593Z,7.30
2018-02-27T03:27:13.806Z,7.03
2018-02-27T03:29:43.821Z,7.10
2018-02-27T03:32:13.323Z,6.63
2018-02-27T03:34:42.640Z,6.07
2018-02-27T03:37:12.680Z,5.90
2018-02-27T03:39:42.656Z,6.60
2018-02-27T03:42:11.936Z,6.30
2018-02-27T03:44:41.181Z,6.43
2018-02-27T03:47:10.391Z,6.73
2018-02-27T03:49:39.662Z,5.90
2018-02-27T03:52:09.635Z,7.17
2018-02-27T03:54:38.865Z,7.10
2018-02-27T03:57:08.844Z,6.50
2018-02-27T03:59:38.080Z,7.60
2018-02-27T04:02:07.284Z,6.67
2018-02-27T04:04:37.296Z,7.10
2018-02-27T04:07:06.654Z,5.50
2018-02-27T04:09:35.887Z,7.90
2018-02-27T04:12:05.882Z,6.60
2018-02-27T04:14:35.105Z,5.53
2018-02-27T04:17:04.615Z,6.77
2018-02-27T04:19:34.598Z,5.50
2018-02-27T04:22:04.566Z,5.43
2018-02-27T04:24:33.810Z,6.13
2018-02-27T04:27:03.086Z,6.77
2018-02-27T04:29:32.346Z,4.53
2018-02-27T04:32:01.542Z,5.60
2018-02-27T04:34:30.738Z,5.70
2018-02-27T04:36:59.970Z,6.70
2018-02-27T04:39:29.186Z,5.93
2018-02-27T04:41:58.603Z,5.73
2018-02-27T04:44:27.833Z,6.87
2018-02-27T04:46:57.831Z,6.67
2018-02-27T04:49:27.057Z,6.50
2018-02-27T04:51:56.300Z,5.93
2018-02-27T04:54:25.553Z,5.80
2018-02-27T04:56:54.742Z,5.47
2018-02-27T04:59:24.711Z,5.30
2018-02-27T05:01:53.976Z,6.37
2018-02-27T05:04:23.271Z,6.03
2018-02-27T05:06:52.583Z,6.40
2018-02-27T05:09:21.811Z,6.13
2018-02-27T05:11:51.028Z,5.67
2018-02-27T05:14:21.962Z,6.13
2018-02-27T05:16:52.706Z,6.67
2018-02-27T05:19:22.719Z,6.07
2018-02-27T05:21:51.934Z,6.67
2018-02-27T05:24:21.945Z,5.53
2018-02-27T05:26:52.067Z,6.43
2018-02-27T05:29:21.330Z,6.10
2018-02-27T05:31:50.538Z,6.33
2018-02-27T05:34:19.763Z,6.77
2018-02-27T05:36:49.811Z,5.87
2018-02-27T05:39:19.038Z,6.07
2018-02-27T05:41:48.328Z,6.60
2018-02-27T05:44:18.357Z,5.70
2018-02-27T05:46:47.654Z,6.33
2018-02-27T05:49:16.925Z,6.63
2018-02-27T05:51:46.863Z,6.83
2018-02-27T05:54:16.096Z,7.10
2018-02-27T05:56:45.303Z,5.90
2018-02-27T05:59:14.662Z,7.37
2018-02-27T06:01:43.891Z,6.17
2018-02-27T06:04:13.959Z,6.10
2018-02-27T06:06:43.475Z,6.20
2018-02-27T06:09:12.867Z,5.47
2018-02-27T06:11:42.132Z,6.00
2018-02-27T06:14:12.078Z,6.13
2018-02-27T06:16:41.279Z,7.03
2018-02-27T06:19:10.527Z,6.53
2018-02-27T06:21:39.915Z,6.33
2018-02-27T06:24:09.142Z,7.67
2018-02-27T06:26:38.376Z,6.53
2018-02-27T06:29:07.619Z,5.27
2018-02-27T06:31:36.876Z,5.60
2018-02-27T06:34:06.067Z,6.10
2018-02-27T06:36:35.309Z,6.97
2018-02-27T06:39:04.517Z,6.33
2018-02-27T06:41:34.531Z,6.37
2018-02-27T06:44:04.509Z,7.07
2018-02-27T06:46:33.805Z,7.33
2018-02-27T06:49:03.017Z,6.77
2018-02-27T06:51:32.241Z,7.57
2018-02-27T06:54:01.651Z,6.37
2018-02-27T06:56:30.875Z,7.50
2018-02-27T06:59:00.900Z,7.57
2018-02-27T07:01:30.214Z,6.60
2018-02-27T07:04:00.194Z,6.30
2018-02-27T07:06:29.466Z,7.10
2018-02-27T07:08:58.690Z,6.60
2018-02-27T07:11:27.914Z,6.93
2018-02-27T07:13:57.161Z,8.17
2018-02-27T07:16:27.872Z,6.57
2018-02-27T07:18:57.260Z,6.97
2018-02-27T07:21:26.563Z,7.03
2018-02-27T07:23:55.997Z,7.93
2018-02-27T07:26:25.203Z,7.30
2018-02-27T07:28:55.206Z,6.90
2018-02-27T07:31:24.451Z,6.80
2018-02-27T07:33:53.865Z,6.73
2018-02-27T07:36:23.182Z,7.07
2018-02-27T07:38:52.522Z,6.83
2018-02-27T07:41:22.552Z,7.03
2018-02-27T07:43:51.823Z,7.17
2018-02-27T07:46:21.877Z,6.57
2018-02-27T07:48:51.087Z,7.90
2018-02-27T07:51:21.360Z,6.93
2018-02-27T07:53:51.451Z,7.47
2018-02-27T07:56:20.682Z,6.67
2018-02-27T07:58:50.655Z,7.10
2018-02-27T08:01:19.999Z,6.73
2018-02-27T08:03:49.989Z,7.10
2018-02-27T08:06:19.376Z,7.33
2018-02-27T08:08:48.615Z,6.40
2018-02-27T08:11:18.639Z,5.93
2018-02-27T08:13:47.903Z,5.97
2018-02-27T08:16:17.299Z,6.93
2018-02-27T08:18:46.511Z,6.50
2018-02-27T08:21:15.793Z,6.70
2018-02-27T08:23:45.024Z,6.27
2018-02-27T08:26:14.265Z,5.07
2018-02-27T08:28:43.489Z,5.57
2018-02-27T08:31:12.743Z,5.93
2018-02-27T08:33:41.989Z,5.90
2018-02-27T08:36:11.203Z,6.07
2018-02-27T08:38:40.410Z,5.10
2018-02-27T08:41:09.622Z,5.67
2018-02-27T08:43:38.853Z,6.07
2018-02-27T08:46:08.230Z,6.00
2018-02-27T08:48:37.470Z,4.80
2018-02-27T08:51:06.721Z,5.67
2018-02-27T08:53:36.722Z,5.30
2018-02-27T08:56:06.746Z,5.03
2018-02-27T08:58:36.005Z,4.40
2018-02-27T09:01:05.234Z,4.20
2018-02-27T09:03:35.402Z,4.80
2018-02-27T09:06:04.622Z,4.67
2018-02-27T09:08:33.882Z,5.53
2018-02-27T09:11:03.132Z,5.00
2018-02-27T09:13:32.416Z,4.33
2018-02-27T09:16:01.678Z,4.97
2018-02-27T09:18:30.946Z,4.50
2018-02-27T09:21:00.949Z,4.90
2018-02-27T09:23:30.939Z,4.40
2018-02-27T09:26:00.180Z,4.37
2018-02-27T09:28:29.479Z,4.50
2018-02-27T09:30:58.721Z,5.27
2018-02-27T09:33:28.050Z,4.37
2018-02-27T09:35:57.226Z,4.73
2018-02-27T09:38:26.455Z,5.03
2018-02-27T09:40:55.719Z,5.43
2018-02-27T09:43:24.927Z,5.67
2018-02-27T09:45:54.211Z,4.20
2018-02-27T09:48:24.142Z,3.90
2018-02-27T09:50:53.376Z,5.63
2018-02-27T09:53:23.409Z,4.37
2018-02-27T09:55:52.651Z,4.27
2018-02-27T09:58:21.896Z,3.90
2018-02-27T10:00:51.116Z,4.27
2018-02-27T10:03:20.350Z,4.13
2018-02-27T10:05:49.879Z,4.60
2018-02-27T10:08:19.867Z,5.37
2018-02-27T10:10:49.119Z,3.87
2018-02-27T10:13:18.318Z,4.50
2018-02-27T10:15:47.787Z,4.20
2018-02-27T10:18:18.063Z,3.70
2018-02-27T10:20:47.374Z,5.40
2018-02-27T10:23:17.406Z,3.90
2018-02-27T10:25:46.611Z,3.77
2018-02-27T10:28:15.883Z,4.33
2018-02-27T10:30:45.280Z,3.40
2018-02-27T10:33:15.223Z,2.93
2018-02-27T10:35:44.434Z,3.20
2018-02-27T10:38:13.670Z,4.07
2018-02-27T10:40:43.754Z,3.30
2018-02-27T10:43:12.974Z,4.00
2018-02-27T10:45:42.961Z,3.87
2018-02-27T10:48:12.306Z,4.00
2018-02-27T10:50:41.741Z,3.70
2018-02-27T10:53:10.968Z,3.50
2018-02-27T10:55:40.190Z,3.03
2018-02-27T10:58:10.199Z,2.90
2018-02-27T11:00:44.709Z,4.20
2018-02-27T11:03:14.744Z,2.70
2018-02-27T11:05:44.758Z,3.87
2018-02-27T11:08:14.114Z,3.20
2018-02-27T11:10:43.380Z,2.77
2018-02-27T11:13:12.608Z,3.20
2018-02-27T11:15:41.817Z,3.00
2018-02-27T11:18:11.050Z,3.00
2018-02-27T11:20:41.461Z,3.33
2018-02-27T11:23:10.676Z,2.73
2018-02-27T11:25:40.691Z,2.80
2018-02-27T11:28:10.705Z,2.93
2018-02-27T11:30:40.967Z,3.40
2018-02-27T11:33:10.183Z,2.93
2018-02-27T11:35:39.450Z,3.40
2018-02-27T11:38:08.699Z,3.33
2018-02-27T11:40:37.982Z,2.83
2018-02-27T11:43:07.219Z,3.13
2018-02-27T11:45:36.451Z,2.90
2018-02-27T11:48:05.700Z,3.40
2018-02-27T11:50:35.133Z,3.10
2018-02-27T11:53:04.379Z,3.10
2018-02-27T11:55:33.602Z,3.30
2018-02-27T11:58:02.851Z,3.30
2018-02-27T12:00:32.084Z,3.10
2018-02-27T12:03:01.333Z,3.70
2018-02-27T12:05:30.705Z,3.43
2018-02-27T12:08:00.113Z,2.80
2018-02-27T12:10:30.263Z,3.60
2018-02-27T12:12:59.511Z,3.30
2018-02-27T12:15:28.737Z,3.20
2018-02-27T12:17:58.743Z,4.17
2018-02-27T12:20:28.108Z,3.87
2018-02-27T12:22:57.343Z,4.50
2018-02-27T12:25:26.627Z,4.90
2018-02-27T12:27:57.378Z,3.60
2018-02-27T12:30:26.621Z,4.30
2018-02-27T12:32:55.810Z,4.37
2018-02-27T12:35:25.057Z,3.07
2018-02-27T12:37:54.285Z,3.90
2018-02-27T12:40:23.524Z,4.30
2018-02-27T12:42:52.767Z,4.57
2018-02-27T12:45:22.280Z,4.37
2018-02-27T12:47:51.463Z,3.90
2018-02-27T12:50:21.432Z,4.17
2018-02-27T12:52:50.637Z,3.67
2018-02-27T12:55:19.838Z,3.70
2018-02-27T12:57:49.056Z,4.37
2018-02-27T13:00:18.319Z,3.97
2018-02-27T13:02:47.578Z,5.27
2018-02-27T13:05:17.548Z,4.23
2018-02-27T13:07:46.752Z,3.70
2018-02-27T13:10:15.979Z,3.63
2018-02-27T13:12:45.978Z,4.40
2018-02-27T13:15:15.210Z,4.07
2018-02-27T13:17:45.211Z,4.33
2018-02-27T13:20:15.186Z,4.00
2018-02-27T13:22:44.491Z,4.70
2018-02-27T13:25:13.807Z,4.03
2018-02-27T13:27:43.077Z,4.03
2018-02-27T13:30:12.289Z,3.60
2018-02-27T13:32:41.572Z,4.37
2018-02-27T13:35:11.545Z,4.20
2018-02-27T13:37:41.518Z,4.43
2018-02-27T13:40:10.813Z,3.90
2018-02-27T13:42:40.206Z,3.53
2018-02-27T13:45:09.420Z,5.17
2018-02-27T13:47:38.652Z,5.80
2018-02-27T13:50:08.840Z,5.43
2018-02-27T13:52:38.282Z,5.00
2018-02-27T13:55:08.304Z,4.60
2018-02-27T13:57:38.316Z,4.43
2018-02-27T14:00:08.325Z,5.67
2018-02-27T14:02:38.394Z,5.63
2018-02-27T14:05:07.639Z,4.80
2018-02-27T14:07:36.951Z,5.93
2018-02-27T14:10:06.956Z,4.70
2018-02-27T14:12:36.943Z,4.90
2018-02-27T14:15:06.175Z,5.87
2018-02-27T14:17:35.439Z,4.13
2018-02-27T14:20:04.643Z,4.43
2018-02-27T14:22:34.641Z,4.40
2018-02-27T14:25:03.907Z,4.40
2018-02-27T14:27:33.122Z,4.30
2018-02-27T14:30:02.375Z,3.90
2018-02-27T14:32:32.522Z,3.60
2018-02-27T14:35:01.841Z,4.57
2018-02-27T14:37:31.101Z,4.07
2018-02-27T14:40:01.075Z,4.10
2018-02-27T14:42:31.187Z,4.47
2018-02-27T14:45:00.532Z,3.80
2018-02-27T14:47:30.643Z,3.80
2018-02-27T14:50:00.059Z,4.10
2018-02-27T14:52:29.315Z,3.20
2018-02-27T14:54:58.540Z,4.03
2018-02-27T14:57:28.555Z,4.00
2018-02-27T14:59:58.586Z,6.77
2018-02-27T15:02:27.871Z,3.73
2018-02-27T15:04:57.862Z,3.30
2018-02-27T15:07:27.171Z,3.40
2018-02-27T15:09:56.404Z,3.63
2018-02-27T15:12:25.658Z,3.47
2018-02-27T15:14:54.884Z,3.93
2018-02-27T15:17:24.230Z,6.50
2018-02-27T15:19:53.444Z,3.57
2018-02-27T15:22:22.762Z,2.83
2018-02-27T15:24:51.955Z,2.70
2018-02-27T15:27:21.997Z,3.53
2018-02-27T15:29:52.010Z,2.90
2018-02-27T15:32:22.046Z,3.43
2018-02-27T15:34:51.285Z,2.77
2018-02-27T15:37:19.762Z,3.73
2018-02-27T15:39:49.612Z,3.33
2018-02-27T15:42:18.843Z,5.73
2018-02-27T15:44:48.083Z,3.50
2018-02-27T15:47:17.352Z,4.17
2018-02-27T15:49:46.645Z,4.90
2018-02-27T15:52:15.810Z,4.03
2018-02-27T15:54:45.833Z,4.10
2018-02-27T15:57:15.831Z,3.10
2018-02-27T15:59:45.093Z,3.30
2018-02-27T16:02:14.311Z,3.27
2018-02-27T16:04:43.539Z,3.23
2018-02-27T16:07:13.595Z,4.30
2018-02-27T16:09:42.834Z,3.43
2018-02-27T16:12:12.087Z,4.30
2018-02-27T16:14:41.424Z,3.07
2018-02-27T16:17:10.670Z,4.33
2018-02-27T16:19:39.887Z,4.00
2018-02-27T16:22:09.165Z,4.23
2018-02-27T16:24:38.384Z,3.87
2018-02-27T16:27:07.724Z,5.00
2018-02-27T16:29:36.971Z,4.30
2018-02-27T16:32:06.279Z,3.03
2018-02-27T16:34:35.526Z,5.30
2018-02-27T16:37:05.543Z,4.23
2018-02-27T16:39:34.792Z,5.90
2018-02-27T16:42:04.051Z,4.57
2018-02-27T16:44:33.277Z,3.80
2018-02-27T16:47:02.534Z,4.20
2018-02-27T16:49:31.780Z,4.00
2018-02-27T16:52:00.991Z,3.13
2018-02-27T16:54:30.251Z,4.60
2018-02-27T16:57:00.249Z,4.37
2018-02-27T16:59:29.506Z,5.10
2018-02-27T17:01:58.735Z,4.73
2018-02-27T17:04:27.972Z,4.93
2018-02-27T17:06:57.268Z,5.00
2018-02-27T17:09:26.542Z,5.00
2018-02-27T17:11:56.557Z,5.30
2018-02-27T17:14:26.606Z,4.53
2018-02-27T17:16:55.820Z,6.10
2018-02-27T17:19:25.053Z,6.70
2018-02-27T17:21:54.305Z,7.20
2018-02-27T17:24:23.522Z,6.60
2018-02-27T17:26:52.752Z,7.53
2018-02-27T17:29:21.976Z,7.80
2018-02-27T17:31:51.245Z,6.93
2018-02-27T17:34:20.451Z,5.70
2018-02-27T17:36:49.694Z,7.57
2018-02-27T17:39:19.027Z,5.40
2018-02-27T17:41:48.414Z,5.17
2018-02-27T17:44:17.658Z,4.53
2018-02-27T17:46:46.952Z,5.37
2018-02-27T17:49:16.107Z,4.60
2018-02-27T17:51:45.372Z,5.47
2018-02-27T17:54:14.635Z,5.37
2018-02-27T17:56:43.882Z,5.00
2018-02-27T17:59:13.135Z,5.17
2018-02-27T18:01:42.346Z,4.87
2018-02-27T18:04:11.587Z,5.27
2018-02-27T18:06:40.908Z,4.80
2018-02-27T18:09:10.164Z,5.00
2018-02-27T18:11:39.394Z,5.40
2018-02-27T18:14:08.668Z,5.13
2018-02-27T18:16:37.884Z,6.07
2018-02-27T18:19:27.591Z,5.37
2018-02-27T18:21:56.835Z,5.50
2018-02-27T18:24:26.051Z,5.77
2018-02-27T18:26:55.332Z,5.63
2018-02-27T18:29:25.636Z,7.10
2018-02-27T18:31:55.619Z,8.20
2018-02-27T18:34:24.865Z,7.30
2018-02-27T18:36:54.863Z,15.80
2018-02-27T18:39:24.142Z,10.80
2018-02-27T18:41:53.442Z,16.00
2018-02-27T18:44:22.663Z,6.90
2018-02-27T18:46:52.713Z,9.10
2018-02-27T18:49:22.014Z,8.10
2018-02-27T18:51:52.089Z,7.20
2018-02-27T18:54:21.323Z,7.93
2018-02-27T18:56:50.628Z,6.53
2018-02-27T18:59:19.980Z,6.90
2018-02-27T19:01:49.269Z,8.90
2018-02-27T19:04:18.508Z,9.60
2018-02-27T19:06:48.523Z,7.37
2018-02-27T19:09:17.874Z,6.80
2018-02-27T19:11:47.153Z,6.37
2018-02-27T19:14:16.368Z,7.20
2018-02-27T19:16:45.627Z,6.13
2018-02-27T19:19:14.876Z,10.40
2018-02-27T19:21:45.665Z,8.93
2018-02-27T19:24:14.884Z,12.13
2018-02-27T19:26:44.129Z,7.53
2018-02-27T19:29:13.369Z,7.70
2018-02-27T19:31:43.420Z,8.10
2018-02-27T19:34:12.846Z,7.90
2018-02-27T19:36:42.878Z,7.67
2018-02-27T19:39:12.152Z,9.33
2018-02-27T19:41:42.163Z,9.37
2018-02-27T19:44:11.586Z,9.87
2018-02-27T19:46:41.580Z,8.47
2018-02-27T19:49:10.814Z,9.60
2018-02-27T19:51:41.123Z,9.17
2018-02-27T19:54:11.135Z,9.27
2018-02-27T19:56:41.163Z,10.83
2018-02-27T19:59:11.166Z,8.90
2018-02-27T20:01:41.172Z,9.53
2018-02-27T20:04:10.440Z,9.13
2018-02-27T20:06:39.671Z,10.37
2018-02-27T20:09:08.916Z,10.63
2018-02-27T20:11:38.966Z,12.20
2018-02-27T20:14:08.212Z,9.27
2018-02-27T20:16:37.485Z,9.20
2018-02-27T20:19:06.720Z,9.90
2018-02-27T20:21:35.952Z,9.70
2018-02-27T20:24:10.602Z,9.87
2018-02-27T20:26:39.884Z,8.43
2018-02-27T20:29:14.464Z,10.00
2018-02-27T20:31:43.750Z,10.70
2018-02-27T20:34:13.747Z,9.80
2018-02-27T20:36:43.004Z,10.80
2018-02-27T20:39:17.546Z,11.20
2018-02-27T20:41:46.784Z,9.97
2018-02-27T20:44:16.032Z,9.80
2018-02-27T20:46:45.363Z,8.00
2018-02-27T20:49:14.655Z,8.80
2018-02-27T20:51:43.931Z,8.30
2018-02-27T20:54:13.187Z,8.13
2018-02-27T20:56:42.450Z,8.37
2018-02-27T20:59:11.679Z,10.67
2018-02-27T21:01:40.994Z,8.57
2018-02-27T21:04:10.359Z,10.10
2018-02-27T21:06:39.597Z,8.73
2018-02-27T21:09:08.881Z,10.77
2018-02-27T21:11:38.851Z,9.73
2018-02-27T21:14:08.182Z,8.90
2018-02-27T21:16:38.183Z,10.83
2018-02-27T21:19:07.438Z,9.57
2018-02-27T21:21:36.713Z,9.70
2018-02-27T21:24:06.798Z,13.10
2018-02-27T21:26:36.027Z,13.83
2018-02-27T21:29:05.283Z,12.03
2018-02-27T21:31:34.498Z,10.50
2018-02-27T21:34:03.726Z,10.20
2018-02-27T21:36:32.992Z,12.23
2018-02-27T21:39:02.228Z,12.47
2018-02-27T21:41:31.518Z,11.30
2018-02-27T21:44:00.829Z,11.10
2018-02-27T21:46:30.102Z,10.87
2018-02-27T21:49:00.129Z,11.37
2018-02-27T21:51:30.127Z,12.57
2018-02-27T21:53:59.403Z,12.03
2018-02-27T21:56:28.638Z,11.70
2018-02-27T21:58:57.955Z,15.23
2018-02-27T22:01:27.191Z,13.97
2018-02-27T22:03:56.443Z,12.87
2018-02-27T22:06:25.685Z,15.03
2018-02-27T22:08:55.831Z,12.97
2018-02-27T22:11:25.084Z,17.10
2018-02-27T22:13:54.314Z,13.60
2018-02-27T22:16:23.588Z,12.57
2018-02-27T22:18:52.823Z,14.70
2018-02-27T22:21:22.200Z,12.20
2018-02-27T22:23:51.418Z,12.10
2018-02-27T22:26:20.643Z,13.37
2018-02-27T22:28:49.870Z,12.37
2018-02-27T22:31:19.104Z,12.80
2018-02-27T22:33:49.052Z,10.93
2018-02-27T22:36:19.868Z,9.80
2018-02-27T22:38:49.147Z,10.30
2018-02-27T22:41:18.521Z,8.27
2018-02-27T22:43:48.162Z,7.97
2018-02-27T22:46:17.405Z,9.40
2018-02-27T22:48:46.688Z,8.73
2018-02-27T22:51:16.664Z,9.60
2018-02-27T22:53:45.901Z,8.73
2018-02-27T22:56:15.906Z,8.67
2018-02-27T22:58:45.162Z,7.87
2018-02-27T23:01:14.370Z,10.27
2018-02-27T23:03:43.618Z,7.33
2018-02-27T23:06:13.600Z,8.20
2018-02-27T23:08:42.842Z,8.50
2018-02-27T23:11:12.202Z,8.97
2018-02-27T23:13:41.633Z,9.10
2018-02-27T23:16:10.862Z,10.07
2018-02-27T23:18:40.270Z,8.00
2018-02-27T23:21:09.476Z,9.50
2018-02-27T23:23:39.223Z,10.10
2018-02-27T23:26:11.489Z,12.27
2018-02-27T23:28:41.875Z,10.23
2018-02-27T23:31:11.435Z,10.40
2018-02-27T23:33:50.124Z,9.37
2018-02-27T23:36:19.425Z,10.83
2018-02-27T23:38:48.656Z,12.10
2018-02-27T23:41:17.897Z,11.57
2018-02-27T23:43:47.125Z,11.10
2018-02-27T23:46:16.637Z,11.17
2018-02-27T23:48:45.878Z,11.20
2018-02-27T23:51:15.112Z,11.70
2018-02-27T23:53:44.465Z,11.43
2018-02-27T23:56:13.731Z,11.03
2018-02-27T23:58:42.937Z,12.40
